sensor_id;sensor_type;location;lat;lon;timestamp;P1;durP1;ratioP1;P2;durP2;ratioP2
55090;SDS011;40985;53.180;5.800;2022-11-15T00:00:26;30.67;;;21.60;;
55090;SDS011;40985;53.180;5.800;2022-11-15T00:02:52;27.30;;;20.60;;
55090;SDS011;40985;53.180;5.800;2022-11-15T00:05:18;27.45;;;20.45;;
55090;SDS011;40985;53.180;5.800;2022-11-15T00:07:44;26.73;;;19.52;;
55090;SDS011;40985;53.180;5.800;2022-11-15T00:10:09;29.27;;;21.05;;
55090;SDS011;40985;53.180;5.800;2022-11-15T00:12:35;24.60;;;18.83;;
55090;SDS011;40985;53.180;5.800;2022-11-15T00:15:01;28.10;;;18.95;;
55090;SDS011;40985;53.180;5.800;2022-11-15T00:17:26;27.27;;;19.58;;
55090;SDS011;40985;53.180;5.800;2022-11-15T00:19:52;26.52;;;18.80;;
55090;SDS011;40985;53.180;5.800;2022-11-15T00:22:17;25.65;;;19.50;;
55090;SDS011;40985;53.180;5.800;2022-11-15T00:24:43;26.40;;;20.08;;
55090;SDS011;40985;53.180;5.800;2022-11-15T00:27:09;27.40;;;20.30;;
55090;SDS011;40985;53.180;5.800;2022-11-15T00:29:34;27.77;;;18.33;;
55090;SDS011;40985;53.180;5.800;2022-11-15T00:32:02;23.83;;;18.05;;
55090;SDS011;40985;53.180;5.800;2022-11-15T00:34:28;24.73;;;17.95;;
55090;SDS011;40985;53.180;5.800;2022-11-15T00:36:54;24.52;;;19.23;;
55090;SDS011;40985;53.180;5.800;2022-11-15T00:39:19;24.80;;;18.60;;
55090;SDS011;40985;53.180;5.800;2022-11-15T00:41:45;25.85;;;18.58;;
55090;SDS011;40985;53.180;5.800;2022-11-15T00:44:11;24.05;;;18.42;;
55090;SDS011;40985;53.180;5.800;2022-11-15T00:46:36;25.33;;;18.63;;
55090;SDS011;40985;53.180;5.800;2022-11-15T00:49:02;26.52;;;19.13;;
55090;SDS011;40985;53.180;5.800;2022-11-15T00:51:27;26.73;;;19.38;;
55090;SDS011;40985;53.180;5.800;2022-11-15T00:53:53;27.55;;;20.25;;
55090;SDS011;40985;53.180;5.800;2022-11-15T00:56:19;25.52;;;18.77;;
55090;SDS011;40985;53.180;5.800;2022-11-15T00:58:45;25.38;;;19.27;;
55090;SDS011;40985;53.180;5.800;2022-11-15T01:01:11;24.50;;;19.65;;
55090;SDS011;40985;53.180;5.800;2022-11-15T01:03:38;26.95;;;19.73;;
55090;SDS011;40985;53.180;5.800;2022-11-15T01:06:05;27.17;;;20.50;;
55090;SDS011;40985;53.180;5.800;2022-11-15T01:08:31;23.08;;;19.30;;
55090;SDS011;40985;53.180;5.800;2022-11-15T01:11:04;25.90;;;19.52;;
55090;SDS011;40985;53.180;5.800;2022-11-15T01:13:32;28.30;;;20.63;;
55090;SDS011;40985;53.180;5.800;2022-11-15T01:15:59;29.77;;;19.13;;
55090;SDS011;40985;53.180;5.800;2022-11-15T01:18:31;26.45;;;20.52;;
55090;SDS011;40985;53.180;5.800;2022-11-15T01:20:56;26.17;;;19.83;;
55090;SDS011;40985;53.180;5.800;2022-11-15T01:23:22;28.65;;;20.30;;
55090;SDS011;40985;53.180;5.800;2022-11-15T01:25:47;24.15;;;19.30;;
55090;SDS011;40985;53.180;5.800;2022-11-15T01:28:13;25.88;;;19.35;;
55090;SDS011;40985;53.180;5.800;2022-11-15T01:30:39;25.17;;;20.10;;
55090;SDS011;40985;53.180;5.800;2022-11-15T01:33:05;31.17;;;21.45;;
55090;SDS011;40985;53.180;5.800;2022-11-15T01:35:30;34.75;;;22.52;;
55090;SDS011;40985;53.180;5.800;2022-11-15T01:37:56;32.88;;;23.88;;
55090;SDS011;40985;53.180;5.800;2022-11-15T01:40:22;35.28;;;23.58;;
55090;SDS011;40985;53.180;5.800;2022-11-15T01:42:47;36.53;;;24.48;;
55090;SDS011;40985;53.180;5.800;2022-11-15T01:45:13;34.53;;;24.23;;
55090;SDS011;40985;53.180;5.800;2022-11-15T01:47:44;35.25;;;24.90;;
55090;SDS011;40985;53.180;5.800;2022-11-15T01:50:15;32.88;;;25.02;;
55090;SDS011;40985;53.180;5.800;2022-11-15T01:52:44;34.78;;;24.83;;
55090;SDS011;40985;53.180;5.800;2022-11-15T01:55:21;35.55;;;24.77;;
55090;SDS011;40985;53.180;5.800;2022-11-15T01:57:52;37.30;;;27.02;;
55090;SDS011;40985;53.180;5.800;2022-11-15T02:00:21;37.20;;;26.23;;
55090;SDS011;40985;53.180;5.800;2022-11-15T02:02:47;36.58;;;25.55;;
55090;SDS011;40985;53.180;5.800;2022-11-15T02:05:13;31.92;;;22.85;;
55090;SDS011;40985;53.180;5.800;2022-11-15T02:07:38;34.83;;;24.92;;
55090;SDS011;40985;53.180;5.800;2022-11-15T02:10:09;37.45;;;24.88;;
55090;SDS011;40985;53.180;5.800;2022-11-15T02:12:42;35.15;;;23.00;;
55090;SDS011;40985;53.180;5.800;2022-11-15T02:15:08;33.08;;;22.85;;
55090;SDS011;40985;53.180;5.800;2022-11-15T02:17:51;37.92;;;23.92;;
55090;SDS011;40985;53.180;5.800;2022-11-15T02:28:44;34.90;;;24.20;;
55090;SDS011;40985;53.180;5.800;2022-11-15T02:36:34;40.17;;;25.38;;
55090;SDS011;40985;53.180;5.800;2022-11-15T02:44:39;37.30;;;23.83;;
55090;SDS011;40985;53.180;5.800;2022-11-15T02:47:11;36.92;;;23.70;;
55090;SDS011;40985;53.180;5.800;2022-11-15T02:49:42;35.92;;;24.60;;
55090;SDS011;40985;53.180;5.800;2022-11-15T02:52:16;37.78;;;24.52;;
55090;SDS011;40985;53.180;5.800;2022-11-15T02:54:42;35.58;;;23.75;;
55090;SDS011;40985;53.180;5.800;2022-11-15T02:57:18;39.97;;;25.58;;
55090;SDS011;40985;53.180;5.800;2022-11-15T03:10:25;43.40;;;25.27;;
55090;SDS011;40985;53.180;5.800;2022-11-15T03:15:29;44.55;;;27.00;;
55090;SDS011;40985;53.180;5.800;2022-11-15T03:18:00;46.13;;;26.02;;
55090;SDS011;40985;53.180;5.800;2022-11-15T03:20:32;53.67;;;27.67;;
55090;SDS011;40985;53.180;5.800;2022-11-15T03:23:09;57.15;;;29.48;;
55090;SDS011;40985;53.180;5.800;2022-11-15T03:25:38;59.33;;;28.85;;
55090;SDS011;40985;53.180;5.800;2022-11-15T03:28:09;65.65;;;31.52;;
55090;SDS011;40985;53.180;5.800;2022-11-15T03:30:37;67.15;;;30.88;;
55090;SDS011;40985;53.180;5.800;2022-11-15T03:33:04;63.55;;;30.58;;
55090;SDS011;40985;53.180;5.800;2022-11-15T03:35:35;75.25;;;31.98;;
55090;SDS011;40985;53.180;5.800;2022-11-15T03:41:11;76.15;;;32.17;;
55090;SDS011;40985;53.180;5.800;2022-11-15T03:43:53;70.32;;;29.77;;
55090;SDS011;40985;53.180;5.800;2022-11-15T03:46:25;72.18;;;31.67;;
55090;SDS011;40985;53.180;5.800;2022-11-15T03:48:59;67.97;;;30.03;;
55090;SDS011;40985;53.180;5.800;2022-11-15T03:51:35;80.57;;;33.80;;
55090;SDS011;40985;53.180;5.800;2022-11-15T03:54:02;74.43;;;31.27;;
55090;SDS011;40985;53.180;5.800;2022-11-15T03:56:31;74.53;;;32.20;;
55090;SDS011;40985;53.180;5.800;2022-11-15T03:58:57;78.55;;;31.58;;
55090;SDS011;40985;53.180;5.800;2022-11-15T04:01:23;93.28;;;32.63;;
55090;SDS011;40985;53.180;5.800;2022-11-15T04:03:48;90.38;;;33.88;;
55090;SDS011;40985;53.180;5.800;2022-11-15T04:06:14;82.30;;;31.48;;
55090;SDS011;40985;53.180;5.800;2022-11-15T04:08:40;79.80;;;33.03;;
55090;SDS011;40985;53.180;5.800;2022-11-15T04:11:05;85.15;;;33.70;;
55090;SDS011;40985;53.180;5.800;2022-11-15T04:13:31;89.65;;;34.92;;
55090;SDS011;40985;53.180;5.800;2022-11-15T04:15:57;85.85;;;33.13;;
55090;SDS011;40985;53.180;5.800;2022-11-15T04:18:22;84.18;;;32.47;;
55090;SDS011;40985;53.180;5.800;2022-11-15T04:20:49;90.03;;;34.45;;
55090;SDS011;40985;53.180;5.800;2022-11-15T04:23:33;92.80;;;33.03;;
55090;SDS011;40985;53.180;5.800;2022-11-15T04:26:20;84.20;;;34.08;;
55090;SDS011;40985;53.180;5.800;2022-11-15T04:28:47;87.63;;;34.17;;
55090;SDS011;40985;53.180;5.800;2022-11-15T04:31:32;85.80;;;32.85;;
55090;SDS011;40985;53.180;5.800;2022-11-15T04:33:57;82.90;;;31.77;;
55090;SDS011;40985;53.180;5.800;2022-11-15T04:36:23;70.82;;;30.60;;
55090;SDS011;40985;53.180;5.800;2022-11-15T04:39:07;76.28;;;30.73;;
55090;SDS011;40985;53.180;5.800;2022-11-15T04:41:33;71.10;;;30.40;;
55090;SDS011;40985;53.180;5.800;2022-11-15T04:43:59;69.63;;;30.73;;
55090;SDS011;40985;53.180;5.800;2022-11-15T04:46:25;74.65;;;31.10;;
55090;SDS011;40985;53.180;5.800;2022-11-15T04:48:51;71.90;;;30.25;;
55090;SDS011;40985;53.180;5.800;2022-11-15T04:51:17;72.57;;;29.95;;
55090;SDS011;40985;53.180;5.800;2022-11-15T04:53:43;74.53;;;31.27;;
55090;SDS011;40985;53.180;5.800;2022-11-15T04:56:09;76.95;;;29.70;;
55090;SDS011;40985;53.180;5.800;2022-11-15T04:58:35;76.78;;;30.30;;
55090;SDS011;40985;53.180;5.800;2022-11-15T05:01:10;80.85;;;29.63;;
55090;SDS011;40985;53.180;5.800;2022-11-15T05:03:37;75.35;;;30.00;;
55090;SDS011;40985;53.180;5.800;2022-11-15T05:06:21;76.85;;;31.33;;
55090;SDS011;40985;53.180;5.800;2022-11-15T05:08:47;79.90;;;30.02;;
55090;SDS011;40985;53.180;5.800;2022-11-15T05:11:13;77.30;;;30.02;;
55090;SDS011;40985;53.180;5.800;2022-11-15T05:13:39;90.20;;;31.55;;
55090;SDS011;40985;53.180;5.800;2022-11-15T05:16:04;93.90;;;32.80;;
55090;SDS011;40985;53.180;5.800;2022-11-15T05:18:30;88.15;;;32.47;;
55090;SDS011;40985;53.180;5.800;2022-11-15T05:20:56;90.85;;;32.65;;
55090;SDS011;40985;53.180;5.800;2022-11-15T05:23:27;98.43;;;33.92;;
55090;SDS011;40985;53.180;5.800;2022-11-15T05:25:53;102.00;;;35.38;;
55090;SDS011;40985;53.180;5.800;2022-11-15T05:28:23;108.88;;;35.20;;
55090;SDS011;40985;53.180;5.800;2022-11-15T05:30:49;128.13;;;37.60;;
55090;SDS011;40985;53.180;5.800;2022-11-15T05:33:14;105.38;;;35.47;;
55090;SDS011;40985;53.180;5.800;2022-11-15T05:35:41;105.65;;;36.78;;
55090;SDS011;40985;53.180;5.800;2022-11-15T05:38:09;127.25;;;38.17;;
55090;SDS011;40985;53.180;5.800;2022-11-15T05:40:34;128.88;;;39.83;;
55090;SDS011;40985;53.180;5.800;2022-11-15T05:43:00;105.38;;;36.33;;
55090;SDS011;40985;53.180;5.800;2022-11-15T05:45:29;110.50;;;37.67;;
55090;SDS011;40985;53.180;5.800;2022-11-15T05:47:56;118.32;;;39.00;;
55090;SDS011;40985;53.180;5.800;2022-11-15T05:50:24;107.75;;;38.90;;
55090;SDS011;40985;53.180;5.800;2022-11-15T05:52:50;111.22;;;39.35;;
55090;SDS011;40985;53.180;5.800;2022-11-15T05:55:16;130.90;;;42.25;;
55090;SDS011;40985;53.180;5.800;2022-11-15T05:57:42;115.90;;;40.28;;
55090;SDS011;40985;53.180;5.800;2022-11-15T06:00:08;107.50;;;37.70;;
55090;SDS011;40985;53.180;5.800;2022-11-15T06:02:34;114.15;;;40.97;;
55090;SDS011;40985;53.180;5.800;2022-11-15T06:05:00;136.27;;;42.38;;
55090;SDS011;40985;53.180;5.800;2022-11-15T06:07:26;114.03;;;40.65;;
55090;SDS011;40985;53.180;5.800;2022-11-15T06:09:51;117.90;;;41.88;;
55090;SDS011;40985;53.180;5.800;2022-11-15T06:12:17;113.90;;;39.60;;
55090;SDS011;40985;53.180;5.800;2022-11-15T06:14:43;114.18;;;40.97;;
55090;SDS011;40985;53.180;5.800;2022-11-15T06:17:08;118.53;;;39.90;;
55090;SDS011;40985;53.180;5.800;2022-11-15T06:19:34;95.15;;;37.75;;
55090;SDS011;40985;53.180;5.800;2022-11-15T06:21:59;109.93;;;40.10;;
55090;SDS011;40985;53.180;5.800;2022-11-15T06:24:25;95.47;;;39.03;;
55090;SDS011;40985;53.180;5.800;2022-11-15T06:26:51;120.38;;;42.10;;
55090;SDS011;40985;53.180;5.800;2022-11-15T06:29:16;95.10;;;37.33;;
55090;SDS011;40985;53.180;5.800;2022-11-15T06:31:42;111.05;;;39.85;;
55090;SDS011;40985;53.180;5.800;2022-11-15T06:34:08;97.43;;;39.92;;
55090;SDS011;40985;53.180;5.800;2022-11-15T06:36:34;113.10;;;39.97;;
55090;SDS011;40985;53.180;5.800;2022-11-15T06:39:01;104.68;;;41.78;;
55090;SDS011;40985;53.180;5.800;2022-11-15T06:41:30;119.78;;;41.03;;
55090;SDS011;40985;53.180;5.800;2022-11-15T06:43:58;123.28;;;42.90;;
55090;SDS011;40985;53.180;5.800;2022-11-15T06:46:24;128.05;;;44.88;;
55090;SDS011;40985;53.180;5.800;2022-11-15T06:48:53;116.97;;;41.95;;
55090;SDS011;40985;53.180;5.800;2022-11-15T06:51:19;118.88;;;41.85;;
55090;SDS011;40985;53.180;5.800;2022-11-15T06:53:45;117.65;;;44.40;;
55090;SDS011;40985;53.180;5.800;2022-11-15T06:56:11;126.80;;;44.92;;
55090;SDS011;40985;53.180;5.800;2022-11-15T06:58:37;123.05;;;45.03;;
55090;SDS011;40985;53.180;5.800;2022-11-15T07:01:06;135.48;;;47.08;;
55090;SDS011;40985;53.180;5.800;2022-11-15T07:03:34;118.03;;;44.03;;
55090;SDS011;40985;53.180;5.800;2022-11-15T07:06:04;123.75;;;46.75;;
55090;SDS011;40985;53.180;5.800;2022-11-15T07:08:30;131.55;;;46.40;;
55090;SDS011;40985;53.180;5.800;2022-11-15T07:11:00;133.82;;;46.15;;
55090;SDS011;40985;53.180;5.800;2022-11-15T07:13:28;139.50;;;48.42;;
55090;SDS011;40985;53.180;5.800;2022-11-15T07:15:58;134.93;;;48.70;;
55090;SDS011;40985;53.180;5.800;2022-11-15T07:18:27;131.68;;;48.20;;
55090;SDS011;40985;53.180;5.800;2022-11-15T07:20:52;147.50;;;48.92;;
55090;SDS011;40985;53.180;5.800;2022-11-15T07:23:18;140.18;;;49.85;;
55090;SDS011;40985;53.180;5.800;2022-11-15T07:25:44;136.80;;;49.42;;
55090;SDS011;40985;53.180;5.800;2022-11-15T07:28:09;139.52;;;48.90;;
55090;SDS011;40985;53.180;5.800;2022-11-15T07:30:35;125.60;;;47.35;;
55090;SDS011;40985;53.180;5.800;2022-11-15T07:33:01;134.18;;;48.25;;
55090;SDS011;40985;53.180;5.800;2022-11-15T07:35:28;134.88;;;48.72;;
55090;SDS011;40985;53.180;5.800;2022-11-15T07:40:21;123.07;;;47.67;;
55090;SDS011;40985;53.180;5.800;2022-11-15T07:42:47;118.55;;;47.17;;
55090;SDS011;40985;53.180;5.800;2022-11-15T07:45:19;114.32;;;47.60;;
55090;SDS011;40985;53.180;5.800;2022-11-15T07:47:46;119.90;;;48.03;;
55090;SDS011;40985;53.180;5.800;2022-11-15T07:50:12;109.57;;;45.08;;
55090;SDS011;40985;53.180;5.800;2022-11-15T07:52:38;106.28;;;46.05;;
55090;SDS011;40985;53.180;5.800;2022-11-15T07:55:03;106.72;;;45.88;;
55090;SDS011;40985;53.180;5.800;2022-11-15T07:57:30;106.57;;;44.70;;
55090;SDS011;40985;53.180;5.800;2022-11-15T07:59:55;100.47;;;44.40;;
55090;SDS011;40985;53.180;5.800;2022-11-15T08:02:21;101.07;;;45.30;;
55090;SDS011;40985;53.180;5.800;2022-11-15T08:04:47;93.05;;;43.70;;
55090;SDS011;40985;53.180;5.800;2022-11-15T08:07:12;89.88;;;41.92;;
55090;SDS011;40985;53.180;5.800;2022-11-15T08:09:38;89.18;;;43.03;;
55090;SDS011;40985;53.180;5.800;2022-11-15T08:12:04;94.53;;;42.75;;
55090;SDS011;40985;53.180;5.800;2022-11-15T08:14:30;93.60;;;43.85;;
55090;SDS011;40985;53.180;5.800;2022-11-15T08:16:56;89.05;;;41.35;;
55090;SDS011;40985;53.180;5.800;2022-11-15T08:19:21;89.35;;;43.33;;
55090;SDS011;40985;53.180;5.800;2022-11-15T08:21:47;88.75;;;41.40;;
55090;SDS011;40985;53.180;5.800;2022-11-15T08:24:13;98.00;;;41.85;;
55090;SDS011;40985;53.180;5.800;2022-11-15T08:26:39;91.15;;;40.78;;
55090;SDS011;40985;53.180;5.800;2022-11-15T08:29:05;84.47;;;42.03;;
55090;SDS011;40985;53.180;5.800;2022-11-15T08:31:34;80.28;;;40.50;;
55090;SDS011;40985;53.180;5.800;2022-11-15T08:34:01;79.95;;;40.28;;
55090;SDS011;40985;53.180;5.800;2022-11-15T08:36:28;74.30;;;39.47;;
55090;SDS011;40985;53.180;5.800;2022-11-15T08:38:54;76.00;;;39.28;;
55090;SDS011;40985;53.180;5.800;2022-11-15T08:41:41;75.32;;;40.40;;
55090;SDS011;40985;53.180;5.800;2022-11-15T08:44:06;72.30;;;39.90;;
55090;SDS011;40985;53.180;5.800;2022-11-15T08:46:31;66.55;;;39.00;;
55090;SDS011;40985;53.180;5.800;2022-11-15T08:48:57;60.45;;;37.13;;
55090;SDS011;40985;53.180;5.800;2022-11-15T08:51:23;67.60;;;37.95;;
55090;SDS011;40985;53.180;5.800;2022-11-15T08:53:48;60.38;;;35.95;;
55090;SDS011;40985;53.180;5.800;2022-11-15T08:56:14;64.68;;;36.75;;
55090;SDS011;40985;53.180;5.800;2022-11-15T08:58:40;58.03;;;34.65;;
55090;SDS011;40985;53.180;5.800;2022-11-15T09:01:13;53.17;;;34.20;;
55090;SDS011;40985;53.180;5.800;2022-11-15T09:03:41;57.05;;;35.10;;
55090;SDS011;40985;53.180;5.800;2022-11-15T09:06:07;53.85;;;33.88;;
55090;SDS011;40985;53.180;5.800;2022-11-15T09:08:32;50.42;;;33.45;;
55090;SDS011;40985;53.180;5.800;2022-11-15T09:11:02;46.63;;;32.03;;
55090;SDS011;40985;53.180;5.800;2022-11-15T09:13:28;55.42;;;32.78;;
55090;SDS011;40985;53.180;5.800;2022-11-15T09:15:57;56.60;;;33.10;;
55090;SDS011;40985;53.180;5.800;2022-11-15T09:18:24;51.22;;;32.28;;
55090;SDS011;40985;53.180;5.800;2022-11-15T09:20:50;51.83;;;31.65;;
55090;SDS011;40985;53.180;5.800;2022-11-15T09:23:15;48.08;;;31.35;;
55090;SDS011;40985;53.180;5.800;2022-11-15T09:25:41;47.55;;;30.33;;
55090;SDS011;40985;53.180;5.800;2022-11-15T09:28:07;46.15;;;30.67;;
55090;SDS011;40985;53.180;5.800;2022-11-15T09:30:33;42.78;;;30.35;;
55090;SDS011;40985;53.180;5.800;2022-11-15T09:32:59;42.72;;;29.35;;
55090;SDS011;40985;53.180;5.800;2022-11-15T09:35:34;45.60;;;28.70;;
55090;SDS011;40985;53.180;5.800;2022-11-15T09:38:00;42.40;;;28.33;;
55090;SDS011;40985;53.180;5.800;2022-11-15T09:40:26;38.90;;;26.50;;
55090;SDS011;40985;53.180;5.800;2022-11-15T09:50:44;35.97;;;27.13;;
55090;SDS011;40985;53.180;5.800;2022-11-15T09:56:25;46.10;;;28.15;;
55090;SDS011;40985;53.180;5.800;2022-11-15T10:01:55;39.40;;;26.88;;
55090;SDS011;40985;53.180;5.800;2022-11-15T10:04:40;43.22;;;28.00;;
55090;SDS011;40985;53.180;5.800;2022-11-15T10:09:43;47.72;;;30.25;;
55090;SDS011;40985;53.180;5.800;2022-11-15T10:12:15;46.60;;;27.35;;
55090;SDS011;40985;53.180;5.800;2022-11-15T10:14:42;41.83;;;27.17;;
55090;SDS011;40985;53.180;5.800;2022-11-15T10:23:01;38.15;;;26.52;;
55090;SDS011;40985;53.180;5.800;2022-11-15T10:25:31;31.08;;;24.63;;
55090;SDS011;40985;53.180;5.800;2022-11-15T10:28:44;39.05;;;26.92;;
55090;SDS011;40985;53.180;5.800;2022-11-15T10:30:52;36.10;;;24.75;;
55090;SDS011;40985;53.180;5.800;2022-11-15T10:38:51;30.25;;;21.77;;
55090;SDS011;40985;53.180;5.800;2022-11-15T10:41:22;30.17;;;21.63;;
55090;SDS011;40985;53.180;5.800;2022-11-15T10:46:31;27.40;;;21.90;;
55090;SDS011;40985;53.180;5.800;2022-11-15T10:49:17;30.20;;;20.08;;
55090;SDS011;40985;53.180;5.800;2022-11-15T10:52:04;31.40;;;19.48;;
55090;SDS011;40985;53.180;5.800;2022-11-15T10:54:55;26.48;;;19.60;;
55090;SDS011;40985;53.180;5.800;2022-11-15T10:57:22;29.50;;;18.95;;
55090;SDS011;40985;53.180;5.800;2022-11-15T10:59:54;23.88;;;18.00;;
55090;SDS011;40985;53.180;5.800;2022-11-15T11:04:56;23.70;;;17.38;;
55090;SDS011;40985;53.180;5.800;2022-11-15T11:07:23;23.40;;;17.60;;
55090;SDS011;40985;53.180;5.800;2022-11-15T11:10:20;25.60;;;18.08;;
55090;SDS011;40985;53.180;5.800;2022-11-15T11:12:46;23.90;;;17.15;;
55090;SDS011;40985;53.180;5.800;2022-11-15T11:15:13;24.25;;;16.05;;
55090;SDS011;40985;53.180;5.800;2022-11-15T11:18:03;22.45;;;16.27;;
55090;SDS011;40985;53.180;5.800;2022-11-15T11:20:41;22.33;;;14.27;;
55090;SDS011;40985;53.180;5.800;2022-11-15T11:28:46;20.92;;;13.82;;
55090;SDS011;40985;53.180;5.800;2022-11-15T11:34:15;20.98;;;13.98;;
55090;SDS011;40985;53.180;5.800;2022-11-15T11:37:03;18.73;;;12.80;;
55090;SDS011;40985;53.180;5.800;2022-11-15T11:39:52;16.08;;;13.00;;
55090;SDS011;40985;53.180;5.800;2022-11-15T11:47:47;18.38;;;10.98;;
55090;SDS011;40985;53.180;5.800;2022-11-15T11:50:21;15.35;;;10.60;;
55090;SDS011;40985;53.180;5.800;2022-11-15T11:53:11;17.23;;;10.50;;
55090;SDS011;40985;53.180;5.800;2022-11-15T11:55:56;14.20;;;9.98;;
55090;SDS011;40985;53.180;5.800;2022-11-15T11:58:29;15.48;;;10.48;;
55090;SDS011;40985;53.180;5.800;2022-11-15T12:14:55;19.42;;;11.05;;
55090;SDS011;40985;53.180;5.800;2022-11-15T12:17:34;17.23;;;8.50;;
55090;SDS011;40985;53.180;5.800;2022-11-15T12:20:06;11.55;;;8.77;;
55090;SDS011;40985;53.180;5.800;2022-11-15T12:30:24;13.40;;;8.25;;
55090;SDS011;40985;53.180;5.800;2022-11-15T12:33:14;11.13;;;7.68;;
55090;SDS011;40985;53.180;5.800;2022-11-15T12:36:07;7.75;;;6.93;;
55090;SDS011;40985;53.180;5.800;2022-11-15T12:41:20;7.00;;;4.20;;
55090;SDS011;40985;53.180;5.800;2022-11-15T12:43:57;4.70;;;2.97;;
55090;SDS011;40985;53.180;5.800;2022-11-15T13:02:34;2.38;;;0.60;;
55090;SDS011;40985;53.180;5.800;2022-11-15T13:12:55;3.08;;;0.80;;
55090;SDS011;40985;53.180;5.800;2022-11-15T13:20:52;3.10;;;1.20;;
55090;SDS011;40985;53.180;5.800;2022-11-15T13:23:17;5.10;;;1.48;;
55090;SDS011;40985;53.180;5.800;2022-11-15T13:28:30;3.25;;;1.15;;
55090;SDS011;40985;53.180;5.800;2022-11-15T13:30:59;5.40;;;0.80;;
55090;SDS011;40985;53.180;5.800;2022-11-15T13:33:43;4.00;;;0.75;;
55090;SDS011;40985;53.180;5.800;2022-11-15T13:36:13;1.65;;;0.55;;
55090;SDS011;40985;53.180;5.800;2022-11-15T13:38:44;2.13;;;0.85;;
55090;SDS011;40985;53.180;5.800;2022-11-15T13:41:22;2.55;;;1.10;;
55090;SDS011;40985;53.180;5.800;2022-11-15T13:43:50;2.50;;;0.90;;
55090;SDS011;40985;53.180;5.800;2022-11-15T13:46:22;2.53;;;1.15;;
55090;SDS011;40985;53.180;5.800;2022-11-15T13:48:53;7.05;;;0.90;;
55090;SDS011;40985;53.180;5.800;2022-11-15T13:54:07;3.80;;;1.23;;
55090;SDS011;40985;53.180;5.800;2022-11-15T13:56:53;4.85;;;1.50;;
55090;SDS011;40985;53.180;5.800;2022-11-15T13:59:44;2.72;;;1.42;;
55090;SDS011;40985;53.180;5.800;2022-11-15T14:02:14;3.35;;;1.42;;
55090;SDS011;40985;53.180;5.800;2022-11-15T14:04:58;3.45;;;1.75;;
55090;SDS011;40985;53.180;5.800;2022-11-15T14:07:38;3.72;;;2.22;;
55090;SDS011;40985;53.180;5.800;2022-11-15T14:12:56;2.85;;;1.70;;
55090;SDS011;40985;53.180;5.800;2022-11-15T14:15:29;5.20;;;2.53;;
55090;SDS011;40985;53.180;5.800;2022-11-15T14:18:00;1.67;;;1.58;;
55090;SDS011;40985;53.180;5.800;2022-11-15T14:20:28;3.78;;;1.45;;
55090;SDS011;40985;53.180;5.800;2022-11-15T14:23:05;5.18;;;2.03;;
55090;SDS011;40985;53.180;5.800;2022-11-15T14:25:56;5.03;;;1.15;;
55090;SDS011;40985;53.180;5.800;2022-11-15T14:30:48;2.53;;;0.80;;
55090;SDS011;40985;53.180;5.800;2022-11-15T14:35:47;3.50;;;1.02;;
55090;SDS011;40985;53.180;5.800;2022-11-15T14:38:13;3.05;;;1.00;;
55090;SDS011;40985;53.180;5.800;2022-11-15T14:40:39;2.38;;;1.10;;
55090;SDS011;40985;53.180;5.800;2022-11-15T14:43:07;2.03;;;1.20;;
55090;SDS011;40985;53.180;5.800;2022-11-15T14:45:35;2.78;;;1.00;;
55090;SDS011;40985;53.180;5.800;2022-11-15T14:48:00;3.08;;;1.00;;
55090;SDS011;40985;53.180;5.800;2022-11-15T14:50:26;2.83;;;1.38;;
55090;SDS011;40985;53.180;5.800;2022-11-15T14:52:52;2.20;;;1.10;;
55090;SDS011;40985;53.180;5.800;2022-11-15T14:55:20;2.13;;;0.88;;
55090;SDS011;40985;53.180;5.800;2022-11-15T14:57:50;2.88;;;0.80;;
55090;SDS011;40985;53.180;5.800;2022-11-15T15:00:17;2.50;;;0.65;;
55090;SDS011;40985;53.180;5.800;2022-11-15T15:02:44;5.43;;;1.20;;
55090;SDS011;40985;53.180;5.800;2022-11-15T15:07:39;1.67;;;0.65;;
55090;SDS011;40985;53.180;5.800;2022-11-15T15:10:05;2.78;;;0.70;;
55090;SDS011;40985;53.180;5.800;2022-11-15T15:12:31;3.83;;;0.70;;
55090;SDS011;40985;53.180;5.800;2022-11-15T15:14:56;2.58;;;0.60;;
55090;SDS011;40985;53.180;5.800;2022-11-15T15:17:22;4.82;;;0.75;;
55090;SDS011;40985;53.180;5.800;2022-11-15T15:19:47;4.03;;;1.30;;
55090;SDS011;40985;53.180;5.800;2022-11-15T15:22:17;2.45;;;0.70;;
55090;SDS011;40985;53.180;5.800;2022-11-15T15:24:44;3.20;;;1.00;;
55090;SDS011;40985;53.180;5.800;2022-11-15T15:27:11;2.83;;;0.70;;
55090;SDS011;40985;53.180;5.800;2022-11-15T15:29:37;2.72;;;0.63;;
55090;SDS011;40985;53.180;5.800;2022-11-15T15:32:02;2.90;;;1.50;;
55090;SDS011;40985;53.180;5.800;2022-11-15T15:34:28;3.65;;;0.70;;
55090;SDS011;40985;53.180;5.800;2022-11-15T15:39:49;2.45;;;0.75;;
55090;SDS011;40985;53.180;5.800;2022-11-15T15:42:19;3.13;;;0.50;;
55090;SDS011;40985;53.180;5.800;2022-11-15T15:44:46;4.07;;;0.55;;
55090;SDS011;40985;53.180;5.800;2022-11-15T15:47:23;3.60;;;0.70;;
55090;SDS011;40985;53.180;5.800;2022-11-15T15:49:49;1.80;;;0.40;;
55090;SDS011;40985;53.180;5.800;2022-11-15T15:52:15;2.55;;;0.47;;
55090;SDS011;40985;53.180;5.800;2022-11-15T15:54:41;4.05;;;0.50;;
55090;SDS011;40985;53.180;5.800;2022-11-15T15:57:07;1.48;;;0.50;;
55090;SDS011;40985;53.180;5.800;2022-11-15T15:59:36;1.80;;;0.40;;
55090;SDS011;40985;53.180;5.800;2022-11-15T16:02:01;3.13;;;0.55;;
55090;SDS011;40985;53.180;5.800;2022-11-15T16:04:27;0.95;;;0.40;;
55090;SDS011;40985;53.180;5.800;2022-11-15T16:06:57;1.88;;;0.60;;
55090;SDS011;40985;53.180;5.800;2022-11-15T16:09:23;1.17;;;0.50;;
55090;SDS011;40985;53.180;5.800;2022-11-15T16:12:09;3.20;;;1.40;;
55090;SDS011;40985;53.180;5.800;2022-11-15T16:14:35;3.33;;;0.80;;
55090;SDS011;40985;53.180;5.800;2022-11-15T16:17:01;6.13;;;0.50;;
55090;SDS011;40985;53.180;5.800;2022-11-15T16:19:26;3.05;;;0.60;;
55090;SDS011;40985;53.180;5.800;2022-11-15T16:21:52;2.45;;;0.45;;
55090;SDS011;40985;53.180;5.800;2022-11-15T16:24:18;4.40;;;0.82;;
55090;SDS011;40985;53.180;5.800;2022-11-15T16:26:44;4.20;;;0.88;;
55090;SDS011;40985;53.180;5.800;2022-11-15T16:29:12;1.33;;;0.63;;
55090;SDS011;40985;53.180;5.800;2022-11-15T16:31:37;5.90;;;1.00;;
55090;SDS011;40985;53.180;5.800;2022-11-15T16:34:03;2.70;;;0.80;;
55090;SDS011;40985;53.180;5.800;2022-11-15T16:36:30;5.07;;;1.02;;
55090;SDS011;40985;53.180;5.800;2022-11-15T16:38:58;4.82;;;2.50;;
55090;SDS011;40985;53.180;5.800;2022-11-15T16:41:24;2.65;;;1.10;;
55090;SDS011;40985;53.180;5.800;2022-11-15T16:43:50;1.88;;;1.60;;
55090;SDS011;40985;53.180;5.800;2022-11-15T16:46:17;2.95;;;1.50;;
55090;SDS011;40985;53.180;5.800;2022-11-15T16:48:45;2.25;;;1.10;;
55090;SDS011;40985;53.180;5.800;2022-11-15T16:51:11;3.55;;;2.00;;
55090;SDS011;40985;53.180;5.800;2022-11-15T16:53:36;3.90;;;2.10;;
55090;SDS011;40985;53.180;5.800;2022-11-15T16:56:02;4.43;;;2.13;;
55090;SDS011;40985;53.180;5.800;2022-11-15T16:58:28;4.03;;;2.03;;
55090;SDS011;40985;53.180;5.800;2022-11-15T17:00:55;4.57;;;1.63;;
55090;SDS011;40985;53.180;5.800;2022-11-15T17:03:23;2.10;;;1.25;;
55090;SDS011;40985;53.180;5.800;2022-11-15T17:05:50;2.25;;;1.60;;
55090;SDS011;40985;53.180;5.800;2022-11-15T17:08:16;4.28;;;1.67;;
55090;SDS011;40985;53.180;5.800;2022-11-15T17:10:41;2.33;;;1.63;;
55090;SDS011;40985;53.180;5.800;2022-11-15T17:13:11;3.15;;;1.42;;